Time;durP1;ratioP1;P1;durP2;ratioP2;P2;SDS_P1;SDS_P2;PMS_P1;PMS_P2;Temp;Humidity;BMP_temperature;BMP_pressure;BME280_temperature;BME280_humidity;BME280_pressure;Samples;Min_cycle;Max_cycle;Signal;HPM_P1;HPM_P2
2021/04/15 00:01:17;;;;;;;21.17;16.90;;;;;;;6.81;100.00;100819.16;1778881;79;21151;-86
2021/04/15 00:03:46;;;;;;;21.77;17.27;;;;;;;6.79;100.00;100818.40;1780191;80;21580;-86
2021/04/15 00:06:23;;;;;;;21.97;17.48;;;;;;;6.75;100.00;100816.91;1780014;80;21179;-86
2021/04/15 00:08:56;;;;;;;24.20;17.17;;;;;;;6.73;100.00;100818.27;1750937;81;21583;-86
2021/04/15 00:11:28;;;;;;;;;;;;;;;6.72;100.00;100819.66;1740576;82;21372;-86
2021/04/15 00:13:58;;;;;;;22.35;16.60;;;;;;;6.70;100.00;100815.02;1734517;82;20734;-86
2021/04/15 00:16:30;;;;;;;21.35;16.20;;;;;;;6.67;100.00;100813.92;1768272;81;21120;-86
2021/04/15 00:19:01;;;;;;;17.75;15.83;;;;;;;6.63;100.00;100814.08;1737789;82;21182;-86
2021/04/15 00:21:31;;;;;;;19.70;16.02;;;;;;;6.64;100.00;100816.22;1768258;81;21168;-86
2021/04/15 00:23:59;;;;;;;18.92;15.45;;;;;;;6.63;100.00;100817.14;1737923;82;21482;-86
2021/04/15 00:26:30;;;;;;;18.05;15.00;;;;;;;6.61;100.00;100817.67;1768096;81;21156;-86
2021/04/15 00:28:59;;;;;;;20.60;15.90;;;;;;;6.57;100.00;100807.95;1738045;82;21130;-86
2021/04/15 00:31:29;;;;;;;20.90;16.45;;;;;;;6.55;100.00;100811.55;1768334;81;22015;-87
2021/04/15 00:33:59;;;;;;;20.72;16.82;;;;;;;6.52;100.00;100806.09;1737934;82;21127;-86
2021/04/15 00:36:28;;;;;;;19.05;16.20;;;;;;;6.48;100.00;100808.45;1768241;81;21369;-87
2021/04/15 00:38:57;;;;;;;19.10;16.50;;;;;;;6.42;100.00;100805.73;1737738;82;21492;-86
2021/04/15 00:41:25;;;;;;;22.60;16.95;;;;;;;6.40;100.00;100806.75;1768252;81;21085;-87
2021/04/15 00:43:54;;;;;;;17.87;15.55;;;;;;;6.40;100.00;100809.33;1737750;82;21571;-86
2021/04/15 00:46:51;;;;;;;20.32;17.00;;;;;;;6.41;100.00;100809.71;1768367;81;21136;-86
2021/04/15 00:49:34;;;;;;;21.12;16.93;;;;;;;6.42;100.00;100803.16;1766422;80;22053;-86
2021/04/15 00:52:09;;;;;;;24.82;18.37;;;;;;;6.46;100.00;100794.32;1774775;80;21588;-86
2021/04/15 00:54:45;;;;;;;24.80;17.87;;;;;;;6.39;100.00;100791.70;1797662;79;21108;-86
2021/04/15 00:57:31;;;;;;;22.05;17.37;;;;;;;6.31;100.00;100794.69;1797687;79;21187;-86
2021/04/15 01:00:04;;;;;;;24.05;18.02;;;;;;;6.23;100.00;100791.68;1768460;80;21140;-87
2021/04/15 01:02:35;;;;;;;22.82;16.90;;;;;;;6.19;100.00;100794.07;1768107;80;21295;-87
2021/04/15 01:05:12;;;;;;;25.37;17.87;;;;;;;6.10;100.00;100793.27;1774804;80;21111;-87
2021/04/15 01:07:41;;;;;;;25.72;20.25;;;;;;;6.00;100.00;100796.81;1775017;80;21163;-86
2021/04/15 01:10:12;;;;;;;28.07;19.75;;;;;;;5.89;100.00;100799.91;1774808;80;21079;-86
2021/04/15 01:12:50;;;;;;;28.70;20.43;;;;;;;5.79;100.00;100789.69;1797731;79;21627;-86
2021/04/15 01:15:41;;;;;;;26.93;21.55;;;;;;;5.73;100.00;100794.72;1798267;79;22243;-87
2021/04/15 01:18:32;;;;;;;29.57;21.93;;;;;;;5.66;100.00;100798.06;1798013;79;21092;-86
2021/04/15 01:21:40;;;;;;;27.65;20.80;;;;;;;5.58;100.00;100792.45;1797761;79;21144;-86
2021/04/15 01:24:27;;;;;;;27.82;21.97;;;;;;;5.52;100.00;100788.47;1768463;79;21563;-86
2021/04/15 01:27:40;;;;;;;30.37;22.27;;;;;;;5.48;100.00;100792.57;1787889;79;21167;-86
2021/04/15 01:30:38;;;;;;;28.15;20.85;;;;;;;5.48;100.00;100797.73;1797726;79;21430;-86
2021/04/15 01:33:23;;;;;;;30.55;21.05;;;;;;;5.49;100.00;100787.31;1797525;79;21123;-86
2021/04/15 01:36:09;;;;;;;29.37;21.52;;;;;;;5.55;100.00;100788.76;1795245;79;21160;-87
2021/04/15 01:38:54;;;;;;;31.95;23.45;;;;;;;5.50;100.00;100786.41;1794566;79;21132;-87
2021/04/15 01:41:44;;;;;;;32.13;23.67;;;;;;;5.41;100.00;100782.17;1794286;79;21151;-87
2021/04/15 01:44:50;;;;;;;30.90;23.05;;;;;;;5.34;100.00;100790.68;1799043;79;21411;-87
2021/04/15 01:47:35;;;;;;;26.60;21.27;;;;;;;5.28;100.00;100789.23;1799374;78;21171;-87
2021/04/15 01:50:12;;;;;;;28.02;22.42;;;;;;;5.25;100.00;100789.37;1832676;78;21115;-87
2021/04/15 01:52:44;;;;;;;29.45;22.35;;;;;;;5.27;100.00;100790.61;1833595;78;21155;-86
2021/04/15 01:55:21;;;;;;;30.57;21.23;;;;;;;5.31;100.00;100789.09;1828619;78;21227;-86
2021/04/15 01:58:10;;;;;;;26.15;20.55;;;;;;;5.34;100.00;100783.75;1808511;78;21329;-86
2021/04/15 02:00:41;;;;;;;30.05;21.48;;;;;;;5.40;100.00;100776.63;1835788;77;21580;-86
2021/04/15 02:03:21;;;;;;;27.70;21.00;;;;;;;5.47;100.00;100784.44;1822356;78;21136;-86
2021/04/15 02:05:58;;;;;;;26.17;20.35;;;;;;;5.52;100.00;100783.73;1804216;79;21682;-86
2021/04/15 02:08:35;;;;;;;27.10;20.77;;;;;;;5.60;100.00;100785.94;1802662;79;21148;-86
2021/04/15 02:11:10;;;;;;;30.60;22.15;;;;;;;5.66;100.00;100789.02;1804729;79;21198;-86
2021/04/15 02:13:42;;;;;;;30.15;21.37;;;;;;;5.68;100.00;100780.74;1805791;79;21175;-86
2021/04/15 02:16:16;;;;;;;28.07;22.05;;;;;;;5.70;100.00;100781.95;1805737;78;21131;-87
2021/04/15 02:18:49;;;;;;;27.48;20.65;;;;;;;5.72;100.00;100783.18;1805629;78;21167;-87
2021/04/15 02:21:50;;;;;;;28.62;21.55;;;;;;;5.75;100.00;100779.98;1823438;78;21116;-86
2021/04/15 02:24:42;;;;;;;25.97;19.50;;;;;;;5.77;100.00;100781.18;1836229;77;21351;-86
2021/04/15 02:27:13;;;;;;;;;;;;;;;5.76;100.00;100789.84;1838366;78;21147;-87
2021/04/15 02:29:47;;;;;;;23.75;19.60;;;;;;;5.76;100.00;100789.41;1831715;78;25557;-87
2021/04/15 02:32:32;;;;;;;24.95;18.73;;;;;;;5.80;100.00;100788.78;1800150;79;21179;-87
2021/04/15 02:35:07;;;;;;;21.10;17.57;;;;;;;5.84;100.00;100782.08;1832271;78;21127;-87
2021/04/15 02:37:55;;;;;;;23.70;18.15;;;;;;;5.91;100.00;100779.98;1822875;78;21571;-87
2021/04/15 02:40:29;;;;;;;24.10;19.32;;;;;;;5.96;100.00;100778.02;1811140;79;21084;-87
2021/04/15 02:43:06;;;;;;;22.62;17.65;;;;;;;6.04;100.00;100778.09;1811478;79;21151;-87
2021/04/15 02:45:40;;;;;;;22.85;16.75;;;;;;;6.08;100.00;100770.53;1811321;79;21219;-87
2021/04/15 02:48:23;;;;;;;23.05;17.20;;;;;;;6.13;100.00;100776.28;1815161;79;21108;-87
2021/04/15 02:51:05;;;;;;;27.30;17.92;;;;;;;6.17;100.00;100773.09;1814833;79;21551;-87
2021/04/15 02:54:05;;;;;;;21.07;15.58;;;;;;;6.21;100.00;100772.82;1814500;78;21615;-87
2021/04/15 02:56:48;;;;;;;17.23;14.58;;;;;;;6.25;100.00;100774.34;1802515;78;21193;-87
2021/04/15 02:59:24;;;;;;;18.48;15.38;;;;;;;6.27;100.00;100776.39;1832788;77;21172;-87
2021/04/15 03:02:07;;;;;;;19.40;14.55;;;;;;;6.26;100.00;100771.28;1808503;79;21542;-87
2021/04/15 03:04:39;;;;;;;16.37;13.72;;;;;;;6.20;100.00;100772.47;1836029;77;22277;-87
2021/04/15 03:07:07;;;;;;;;;;;;;;;6.16;100.00;100768.37;1815855;78;21160;-87
2021/04/15 03:09:37;;;;;;;19.77;15.03;;;;;;;6.14;100.00;100765.87;1835936;78;20513;-87
2021/04/15 03:12:13;;;;;;;15.98;13.58;;;;;;;6.12;100.00;100769.47;1835898;77;21144;-87
2021/04/15 03:14:52;;;;;;;15.45;13.40;;;;;;;6.14;100.00;100767.17;1810296;78;21562;-87
2021/04/15 03:17:23;;;;;;;18.20;13.80;;;;;;;6.19;100.00;100771.24;1814858;78;21355;-87
2021/04/15 03:19:58;;;;;;;17.67;14.03;;;;;;;6.23;100.00;100761.95;1789812;79;21171;-87
2021/04/15 03:22:36;;;;;;;16.42;13.53;;;;;;;6.27;100.00;100766.05;1805599;78;21127;-87
2021/04/15 03:25:06;;;;;;;19.62;14.78;;;;;;;6.29;100.00;100761.60;1788338;79;21152;-87
2021/04/15 03:27:59;;;;;;;18.30;14.40;;;;;;;6.31;100.00;100769.30;1788445;79;21155;-87
2021/04/15 03:30:45;;;;;;;17.17;14.25;;;;;;;6.31;100.00;100764.95;1792433;80;21364;-87
2021/04/15 03:33:21;;;;;;;18.45;14.25;;;;;;;6.35;100.00;100768.20;1787145;80;21596;-87
2021/04/15 03:36:03;;;;;;;18.70;14.28;;;;;;;6.38;100.00;100772.36;1785785;80;21565;-87
2021/04/15 03:38:46;;;;;;;18.27;14.40;;;;;;;6.42;100.00;100773.88;1787606;80;21271;-87
2021/04/15 03:41:22;;;;;;;19.90;15.95;;;;;;;6.46;100.00;100772.33;1804816;79;21148;-87
2021/04/15 03:43:59;;;;;;;21.57;15.68;;;;;;;6.49;100.00;100781.67;1805280;79;21353;-87
2021/04/15 03:46:45;;;;;;;19.05;14.20;;;;;;;6.52;100.00;100780.22;1805716;79;21159;-87
2021/04/15 03:49:21;;;;;;;22.40;15.28;;;;;;;6.53;100.00;100776.69;1805230;78;21191;-87
2021/04/15 03:51:57;;;;;;;21.75;16.82;;;;;;;6.57;100.00;100776.08;1803325;79;21112;-87
2021/04/15 03:54:29;;;;;;;23.25;17.07;;;;;;;6.57;100.00;100775.61;1832767;78;21119;-87
2021/04/15 03:57:00;;;;;;;22.48;17.65;;;;;;;6.57;100.00;100783.84;1774186;79;22120;-87
2021/04/15 03:59:52;;;;;;;25.15;17.07;;;;;;;6.58;100.00;100784.20;1803808;79;21160;-87
2021/04/15 04:02:32;;;;;;;21.90;17.45;;;;;;;6.58;100.00;100786.78;1796490;79;21162;-88
2021/04/15 04:05:06;;;;;;;24.35;17.30;;;;;;;6.60;100.00;100789.69;1807377;79;21190;-88
2021/04/15 04:07:50;;;;;;;22.15;17.02;;;;;;;6.65;100.00;100783.41;1806916;79;21127;-87
2021/04/15 04:10:24;;;;;;;22.70;17.20;;;;;;;6.68;100.00;100783.24;1800622;79;21544;-87
2021/04/15 04:13:35;;;;;;;25.17;16.93;;;;;;;6.70;100.00;100782.67;1804985;79;21187;-88
2021/04/15 04:16:26;;;;;;;59.65;18.65;;;;;;;6.74;100.00;100779.83;1806673;79;21179;-88
2021/04/15 04:19:17;;;;;;;34.30;18.42;;;;;;;7.01;100.00;100779.19;1793723;79;21131;-88
2021/04/15 04:21:57;;;;;;;32.83;18.15;;;;;;;7.53;100.00;100770.12;1781690;79;21310;-87
2021/04/15 04:25:01;;;;;;;37.53;17.57;;;;;;;7.86;100.00;100772.04;1772794;78;21437;-84
2021/04/15 04:27:41;;;;;;;42.00;18.17;;;;;;;8.10;100.00;100772.30;1790994;79;21064;-88
2021/04/15 04:30:37;;;;;;;29.85;17.62;;;;;;;8.25;100.00;100770.97;1804498;79;21133;-86
2021/04/15 04:36:36;;;;;;;43.83;18.15;;;;;;;8.53;100.00;100770.08;1790267;79;21135;-84
2021/04/15 04:43:40;;;;;;;38.33;17.37;;;;;;;8.69;100.00;100775.14;1788640;79;22222;-86
2021/04/15 04:54:59;;;;;;;29.57;15.88;;;;;;;8.86;100.00;100770.58;1789913;80;21163;-86
2021/04/15 04:57:36;;;;;;;30.02;16.80;;;;;;;8.83;100.00;100769.88;1781145;79;22771;-86
2021/04/15 05:00:12;;;;;;;35.68;17.05;;;;;;;8.81;100.00;100770.43;1792735;79;21148;-86
2021/04/15 05:02:41;;;;;;;32.80;16.90;;;;;;;8.78;100.00;100775.00;1796515;79;21151;-86
2021/04/15 05:05:21;;;;;;;30.40;16.60;;;;;;;8.85;100.00;100765.87;1796732;79;21185;-86
2021/04/15 05:08:28;;;;;;;34.13;16.90;;;;;;;8.91;100.00;100769.83;1795621;79;21084;-86
2021/04/15 05:15:05;;;;;;;31.07;16.60;;;;;;;8.99;100.00;100764.97;1797712;79;21123;-87
2021/04/15 05:21:14;;;;;;;58.23;17.82;;;;;;;9.12;100.00;100764.98;1797370;79;21081;-88
2021/04/15 05:24:11;;;;;;;31.50;17.65;;;;;;;9.12;100.00;100771.00;1793776;79;21159;-86
2021/04/15 05:26:43;;;;;;;31.87;16.50;;;;;;;9.12;100.00;100769.70;1783433;79;21575;-87
2021/04/15 05:29:22;;;;;;;32.53;16.55;;;;;;;9.13;100.00;100768.77;1791850;79;21152;-89
2021/04/15 05:31:54;;;;;;;33.38;16.32;;;;;;;9.19;100.00;100764.94;1760818;81;21203;-88
2021/04/15 05:34:52;;;;;;;41.00;17.45;;;;;;;9.28;100.00;100771.27;1741603;81;21138;-89
2021/04/15 05:41:52;;;;;;;25.70;15.58;;;;;;;9.37;100.00;100768.06;1741701;82;21451;-89
2021/04/15 05:44:57;;;;;;;26.02;15.45;;;;;;;9.38;100.00;100767.12;1754920;81;21144;-89
2021/04/15 05:55:32;;;;;;;26.60;17.15;;;;;;;9.33;100.00;100770.52;1781723;80;21143;-89
2021/04/15 06:02:43;;;;;;;28.50;16.85;;;;;;;9.37;100.00;100768.55;1774301;79;21187;-88
2021/04/15 06:17:31;;;;;;;34.35;17.65;;;;;;;9.46;100.00;100777.84;1773408;81;21124;-90
2021/04/15 06:33:13;;;;;;;22.55;16.48;;;;;;;9.34;100.00;100783.84;1773564;81;21105;-89
2021/04/15 06:40:32;;;;;;;28.07;17.12;;;;;;;9.26;100.00;100781.78;1773544;81;21132;-89
2021/04/15 06:51:48;;;;;;;30.52;17.23;;;;;;;9.18;100.00;100782.76;1747243;81;21536;-88
2021/04/15 06:54:40;;;;;;;24.50;17.45;;;;;;;9.20;100.00;100779.60;1738894;82;22273;-88
2021/04/15 07:01:47;;;;;;;21.25;16.17;;;;;;;9.31;100.00;100778.88;1739177;81;20252;-88
2021/04/15 07:04:37;;;;;;;19.98;15.32;;;;;;;9.33;100.00;100776.16;1738930;82;21135;-88
2021/04/15 07:16:14;;;;;;;19.73;13.48;;;;;;;9.40;100.00;100781.31;1738900;82;21566;-88
2021/04/15 07:32:35;;;;;;;30.05;21.70;;;;;;;9.37;100.00;100768.06;1738988;82;21139;-88
2021/04/15 07:43:59;;;;;;;10.45;9.35;;;;;;;9.38;100.00;100770.18;1738947;82;21132;-88
2021/04/15 07:54:52;;;;;;;11.48;7.90;;;;;;;9.62;100.00;100765.91;1781728;80;21108;-88
2021/04/15 08:01:28;;;;;;;9.33;7.30;;;;;;;9.76;100.00;100764.97;1792502;80;21199;-88
2021/04/15 08:08:32;;;;;;;9.95;7.35;;;;;;;9.72;100.00;100762.68;1792720;80;21350;-87
2021/04/15 08:15:10;;;;;;;8.43;7.33;;;;;;;9.75;100.00;100758.58;1792699;80;21171;-87
2021/04/15 08:18:14;;;;;;;8.03;7.22;;;;;;;9.76;100.00;100760.25;1792642;80;21093;-87
2021/04/15 08:21:02;;;;;;;8.15;6.75;;;;;;;9.74;100.00;100759.03;1774288;78;21202;-87
2021/04/15 08:24:19;;;;;;;8.30;6.62;;;;;;;9.75;100.00;100749.00;1815249;78;23296;-87
2021/04/15 08:27:35;;;;;;;8.53;7.65;;;;;;;9.82;100.00;100758.96;1752233;81;22281;-87
2021/04/15 08:30:36;;;;;;;10.65;7.58;;;;;;;9.94;100.00;100750.31;1747293;81;21603;-87
2021/04/15 08:33:41;;;;;;;9.75;7.85;;;;;;;10.08;100.00;100747.56;1811443;78;21171;-88
2021/04/15 08:44:34;;;;;;;8.35;7.55;;;;;;;10.43;100.00;100742.58;1792271;80;21150;-87
2021/04/15 08:51:00;;;;;;;7.70;6.90;;;;;;;10.53;100.00;100735.29;1787337;80;21239;-88
2021/04/15 08:54:05;;;;;;;8.95;7.25;;;;;;;10.62;100.00;100733.77;1771316;81;21103;-88
2021/04/15 08:57:08;;;;;;;11.08;7.45;;;;;;;10.66;100.00;100733.07;1768235;81;22999;-88
2021/04/15 09:03:38;;;;;;;8.58;6.35;;;;;;;10.72;100.00;100736.55;1702688;83;21211;-88
2021/04/15 09:10:32;;;;;;;6.95;6.20;;;;;;;10.67;100.00;100729.08;1741206;80;21603;-88
2021/04/15 09:13:16;;;;;;;8.63;6.70;;;;;;;10.57;100.00;100733.29;1742622;82;21159;-88
2021/04/15 09:16:23;;;;;;;8.08;6.72;;;;;;;10.49;100.00;100728.66;1737487;81;21249;-88
2021/04/15 09:19:29;;;;;;;8.38;6.67;;;;;;;10.47;100.00;100725.78;1742427;82;21555;-88
2021/04/15 09:22:10;;;;;;;10.08;7.30;;;;;;;10.48;100.00;100728.30;1742512;82;21164;-88
2021/04/15 09:25:04;;;;;;;11.03;7.25;;;;;;;10.57;100.00;100729.38;1699545;82;21223;-89
2021/04/15 09:32:04;;;;;;;9.20;7.53;;;;;;;10.78;100.00;100723.52;1755150;81;21548;-89
2021/04/15 09:34:56;;;;;;;8.55;7.65;;;;;;;10.84;100.00;100717.88;1759135;80;21168;-92
2021/04/15 09:37:52;;;;;;;8.85;7.75;;;;;;;10.91;100.00;100719.08;1744637;81;21143;-92
2021/04/15 09:40:58;;;;;;;11.18;7.90;;;;;;;10.95;100.00;100715.77;1742609;82;21520;-92
2021/04/15 09:43:40;;;;;;;10.00;8.28;;;;;;;10.94;100.00;100717.52;1716523;82;22286;-92
2021/04/15 09:46:26;;;;;;;11.05;9.80;;;;;;;10.98;100.00;100715.06;1742481;82;21164;-91
2021/04/15 09:49:47;;;;;;;10.13;9.10;;;;;;;11.05;100.00;100720.66;1729704;80;21095;-91
2021/04/15 09:52:23;;;;;;;11.40;9.85;;;;;;;11.12;100.00;100718.39;1768555;81;21568;-88
2021/04/15 09:55:35;;;;;;;10.90;8.90;;;;;;;11.17;100.00;100722.31;1772761;81;21131;-88
2021/04/15 09:58:33;;;;;;;9.53;8.55;;;;;;;11.18;100.00;100708.80;1771878;80;21436;-88
2021/04/15 10:01:10;;;;;;;10.50;7.58;;;;;;;11.16;100.00;100710.71;1740894;81;21223;-88
2021/04/15 10:03:46;;;;;;;8.40;7.40;;;;;;;11.12;100.00;100711.87;1766265;80;21227;-88
2021/04/15 10:06:30;;;;;;;9.23;6.70;;;;;;;11.06;100.00;100715.77;1766979;80;21305;-88
2021/04/15 10:09:07;;;;;;;7.05;6.10;;;;;;;10.94;100.00;100717.52;1749703;81;21219;-89
2021/04/15 10:11:53;;;;;;;9.60;6.67;;;;;;;10.81;100.00;100720.70;1726517;82;21540;-88
2021/04/15 10:14:50;;;;;;;8.40;6.67;;;;;;;10.70;100.00;100720.20;1748826;80;21085;-89
2021/04/15 10:17:47;;;;;;;8.25;6.55;;;;;;;10.57;100.00;100726.78;1763434;81;21128;-88
2021/04/15 10:20:44;;;;;;;7.35;6.60;;;;;;;10.52;100.00;100726.30;1702378;83;21210;-88
2021/04/15 10:23:57;;;;;;;7.25;6.40;;;;;;;10.50;100.00;100730.78;1754492;81;21184;-88
2021/04/15 10:27:15;;;;;;;7.40;6.65;;;;;;;10.50;100.00;100733.38;1759934;81;21434;-89
2021/04/15 10:30:25;;;;;;;7.85;7.08;;;;;;;10.49;100.00;100731.27;1757148;81;21184;-89
2021/04/15 10:33:25;;;;;;;7.35;6.65;;;;;;;10.47;100.00;100727.08;1763973;80;21125;-88
2021/04/15 10:36:12;;;;;;;7.22;6.53;;;;;;;10.44;100.00;100727.33;1761854;80;21540;-88
2021/04/15 10:39:28;;;;;;;6.95;5.92;;;;;;;10.38;100.00;100732.02;1756414;80;21607;-89
2021/04/15 10:42:34;;;;;;;8.68;5.75;;;;;;;10.28;100.00;100736.67;1760741;80;21179;-89
2021/04/15 10:45:31;;;;;;;6.90;5.58;;;;;;;10.18;100.00;100730.82;1753006;80;21216;-89
2021/04/15 10:48:24;;;;;;;6.37;5.22;;;;;;;10.15;100.00;100731.52;1750677;81;21136;-89
2021/04/15 10:51:09;;;;;;;8.00;5.95;;;;;;;10.15;100.00;100730.20;1755245;81;21148;-89
2021/04/15 10:54:03;;;;;;;7.28;6.53;;;;;;;10.16;100.00;100728.82;1752749;81;21204;-89
2021/04/15 10:57:01;;;;;;;7.15;5.67;;;;;;;10.21;100.00;100723.29;1753408;81;21343;-90
2021/04/15 10:59:39;;;;;;;8.25;4.22;;;;;;;10.28;100.00;100723.66;1752787;81;21116;-88
2021/04/15 11:02:47;;;;;;;5.45;4.00;;;;;;;10.30;100.00;100721.30;1755615;80;21123;-88
2021/04/15 11:09:36;;;;;;;7.55;4.70;;;;;;;10.30;100.00;100716.09;1742631;82;21183;-88
2021/04/15 11:12:22;;;;;;;11.57;4.55;;;;;;;10.32;100.00;100713.41;1743291;80;21195;-88
2021/04/15 11:15:00;;;;;;;7.33;4.83;;;;;;;10.29;100.00;100709.25;1734888;81;21167;-88
2021/04/15 11:17:46;;;;;;;7.53;5.03;;;;;;;10.31;100.00;100709.13;1753150;80;21163;-87
2021/04/15 11:20:21;;;;;;;6.40;5.50;;;;;;;10.36;100.00;100706.56;1760056;80;21187;-87
2021/04/15 11:23:11;;;;;;;5.10;4.47;;;;;;;10.40;100.00;100706.71;1756739;80;21144;-87
2021/04/15 11:25:44;;;;;;;5.30;4.80;;;;;;;10.43;100.00;100708.26;1739860;82;21450;-87
2021/04/15 11:28:25;;;;;;;5.47;4.85;;;;;;;10.50;100.00;100700.84;1742865;82;21186;-88
2021/04/15 11:31:12;;;;;;;11.53;5.30;;;;;;;10.53;100.00;100701.44;1748029;80;21191;-87
2021/04/15 11:33:51;;;;;;;7.60;5.28;;;;;;;10.56;100.00;100696.47;1765846;81;21987;-87
2021/04/15 11:36:29;;;;;;;6.62;5.17;;;;;;;10.65;100.00;100696.28;1768894;80;21203;-87
2021/04/15 11:39:12;;;;;;;5.92;5.03;;;;;;;10.75;100.00;100696.42;1772988;80;21340;-87
2021/04/15 11:42:02;;;;;;;8.43;6.28;;;;;;;10.88;100.00;100690.64;1871734;76;22386;-87
2021/04/15 11:44:47;;;;;;;6.28;5.67;;;;;;;10.95;100.00;100689.72;1840530;77;21197;-88
2021/04/15 11:47:30;;;;;;;6.55;5.95;;;;;;;11.06;100.00;100689.71;1833100;78;22304;-88
2021/04/15 11:50:21;;;;;;;6.53;5.83;;;;;;;11.19;100.00;100688.30;1811738;78;21161;-87
2021/04/15 11:52:53;;;;;;;4.92;4.53;;;;;;;11.31;100.00;100684.77;1808863;78;21141;-88
2021/04/15 11:55:31;;;;;;;5.53;4.75;;;;;;;11.39;100.00;100676.34;1840402;77;21184;-90
2021/04/15 11:58:05;;;;;;;5.10;4.67;;;;;;;11.44;100.00;100677.29;1838568;77;21141;-90
2021/04/15 12:00:44;;;;;;;5.03;4.60;;;;;;;11.45;100.00;100672.44;1810405;78;21365;-90
2021/04/15 12:03:20;;;;;;;6.37;4.60;;;;;;;11.47;100.00;100668.75;1837595;78;21588;-90
2021/04/15 12:05:49;;;;;;;5.03;4.50;;;;;;;11.48;100.00;100674.33;1836187;78;21542;-89
2021/04/15 12:08:37;;;;;;;4.58;4.15;;;;;;;11.47;100.00;100671.84;1833654;78;21167;-89
2021/04/15 12:11:18;;;;;;;4.08;3.77;;;;;;;11.45;100.00;100671.98;1835704;77;21156;-88
2021/04/15 12:14:02;;;;;;;7.03;6.00;;;;;;;11.41;100.00;100667.94;1829918;76;22183;-88
2021/04/15 12:17:08;;;;;;;9.85;7.60;;;;;;;11.24;100.00;100668.41;1825146;78;21410;-86
2021/04/15 12:19:54;;;;;;;8.95;8.05;;;;;;;11.08;100.00;100669.59;1840340;78;21165;-86
2021/04/15 12:22:53;;;;;;;10.15;9.05;;;;;;;10.93;100.00;100671.60;1837230;76;21172;-88
2021/04/15 12:25:27;;;;;;;12.05;10.25;;;;;;;10.84;100.00;100676.20;1821118;76;21184;-87
2021/04/15 12:28:25;;;;;;;15.83;13.83;;;;;;;10.70;100.00;100682.44;1814279;78;21526;-87
2021/04/15 12:31:23;;;;;;;16.20;14.50;;;;;;;10.58;100.00;100683.69;1807365;79;21121;-87
2021/04/15 12:34:23;;;;;;;18.10;15.93;;;;;;;10.44;100.00;100691.70;1778210;79;21125;-89
2021/04/15 12:37:09;;;;;;;23.75;16.75;;;;;;;10.30;100.00;100684.86;1803415;78;21477;-89
2021/04/15 12:40:05;;;;;;;21.02;15.20;;;;;;;10.21;100.00;100695.48;1767748;78;21152;-87
2021/04/15 12:42:37;;;;;;;17.30;14.65;;;;;;;10.14;100.00;100694.72;1847903;76;21346;-89
2021/04/15 12:45:28;;;;;;;16.17;13.78;;;;;;;10.12;100.00;100696.62;1840264;77;21547;-89
2021/04/15 12:47:58;;;;;;;15.95;13.70;;;;;;;10.10;100.00;100693.66;1840342;78;21081;-88
2021/04/15 12:50:29;;;;;;;18.65;16.65;;;;;;;10.07;100.00;100699.07;1840363;77;21141;-88
2021/04/15 12:52:59;;;;;;;18.98;16.57;;;;;;;10.09;100.00;100703.70;1839690;78;21125;-88
2021/04/15 12:55:29;;;;;;;22.32;18.98;;;;;;;10.08;100.00;100700.73;1809878;78;21363;-88
2021/04/15 12:57:58;;;;;;;27.00;22.77;;;;;;;10.09;100.00;100703.70;1839733;78;21592;-88
2021/04/15 13:00:46;;;;;;;31.75;24.07;;;;;;;10.13;100.00;100702.19;1840003;78;21054;-88
2021/04/15 13:03:27;;;;;;;24.90;22.32;;;;;;;10.14;100.00;100703.83;1839880;78;21165;-87
2021/04/15 13:06:18;;;;;;;22.90;20.40;;;;;;;10.14;100.00;100698.17;1797264;78;21176;-86
2021/04/15 13:08:56;;;;;;;28.00;25.17;;;;;;;10.14;100.00;100697.32;1797196;78;21608;-87
2021/04/15 13:11:34;;;;;;;31.37;27.13;;;;;;;10.13;100.00;100700.89;1822066;76;22350;-87
2021/04/15 13:14:09;;;;;;;28.87;24.95;;;;;;;10.13;100.00;100703.49;1815787;78;21160;-87
2021/04/15 13:16:47;;;;;;;20.62;18.07;;;;;;;10.12;100.00;100701.83;1820183;78;21204;-88
2021/04/15 13:19:27;;;;;;;19.40;15.70;;;;;;;10.08;100.00;100703.81;1840035;77;21217;-87
2021/04/15 13:22:10;;;;;;;14.87;12.68;;;;;;;10.02;100.00;100697.73;1837169;76;21220;-87
2021/04/15 13:24:51;;;;;;;11.80;10.30;;;;;;;9.93;100.00;100704.43;1814311;78;21567;-86
2021/04/15 13:27:44;;;;;;;15.48;10.60;;;;;;;9.88;100.00;100711.73;1806817;79;21557;-87
2021/04/15 13:30:42;;;;;;;27.35;17.42;;;;;;;9.79;100.00;100706.25;1821449;78;21124;-87
2021/04/15 13:33:32;;;;;;;32.93;20.15;;;;;;;9.74;100.00;100708.32;1800819;78;21124;-86
2021/04/15 13:36:06;;;;;;;30.05;18.00;;;;;;;9.66;100.00;100708.03;1737601;81;21447;-87
2021/04/15 13:38:45;;;;;;;25.70;16.17;;;;;;;9.61;100.00;100713.55;1778803;80;21132;-86
2021/04/15 13:41:25;;;;;;;38.80;23.98;;;;;;;9.59;100.00;100705.50;1773700;80;21102;-87
2021/04/15 13:43:59;;;;;;;50.50;32.70;;;;;;;9.60;100.00;100703.27;1757692;80;21142;-83
2021/04/15 13:46:44;;;;;;;44.60;30.72;;;;;;;9.62;100.00;100703.99;1758974;81;21051;-85
2021/04/15 13:49:21;;;;;;;65.83;49.18;;;;;;;9.71;100.00;100705.11;1734012;81;21549;-86
2021/04/15 13:52:05;;;;;;;57.17;42.00;;;;;;;9.86;100.00;100704.51;1755444;81;21987;-85
2021/04/15 13:54:46;;;;;;;50.48;35.45;;;;;;;9.96;100.00;100704.23;1759143;81;21143;-86
2021/04/15 13:57:45;;;;;;;40.43;31.52;;;;;;;10.07;100.00;100696.47;1731891;81;21574;-86
2021/04/15 14:00:43;;;;;;;35.50;26.10;;;;;;;10.22;100.00;100688.03;1759146;81;21642;-85
2021/04/15 14:03:43;;;;;;;30.55;19.90;;;;;;;10.35;100.00;100694.48;1776491;80;22125;-86
2021/04/15 14:10:39;;;;;;;16.32;12.13;;;;;;;10.58;100.00;100682.88;1790582;80;21067;-86
2021/04/15 14:13:22;;;;;;;11.83;10.55;;;;;;;10.70;100.00;100691.06;1790514;80;21205;-86
2021/04/15 14:15:58;;;;;;;11.78;10.58;;;;;;;10.76;100.00;100690.27;1787891;80;21169;-88
2021/04/15 14:22:50;;;;;;;18.65;12.15;;;;;;;10.83;100.00;100687.56;1790517;80;21071;-87
2021/04/15 14:32:47;;;;;;;23.02;18.10;;;;;;;10.93;100.00;100682.48;1782799;80;21138;-87
2021/04/15 14:38:47;;;;;;;16.37;13.60;;;;;;;10.96;100.00;100673.95;1773658;78;21570;-87
2021/04/15 14:45:40;;;;;;;16.67;13.72;;;;;;;10.94;100.00;100666.72;1759240;81;21115;-86
2021/04/15 14:52:32;;;;;;;33.70;24.35;;;;;;;10.72;100.00;100673.56;1763631;80;21765;-86
2021/04/15 14:59:33;;;;;;;57.67;33.98;;;;;;;10.65;100.00;100664.55;1775605;80;21151;-86
2021/04/15 15:10:23;;;;;;;46.92;30.57;;;;;;;10.52;100.00;100669.02;1776213;80;21118;-86
2021/04/15 15:17:20;;;;;;;26.42;19.60;;;;;;;10.45;100.00;100666.52;1775709;80;21138;-85
2021/04/15 15:24:25;;;;;;;14.45;11.43;;;;;;;10.54;100.00;100664.50;1805236;78;21724;-86
2021/04/15 15:30:56;;;;;;;11.10;9.85;;;;;;;10.63;100.00;100661.70;1820527;78;21167;-86
2021/04/15 15:33:33;;;;;;;10.88;9.55;;;;;;;10.66;100.00;100658.40;1820404;78;21552;-86
2021/04/15 15:36:15;;;;;;;12.00;10.80;;;;;;;10.67;100.00;100667.87;1820312;78;21120;-86
2021/04/15 15:42:53;;;;;;;16.60;12.35;;;;;;;10.66;100.00;100664.91;1776759;80;21573;-86
2021/04/15 15:50:09;;;;;;;18.87;15.68;;;;;;;10.67;100.00;100664.42;1770675;78;22331;-86
2021/04/15 15:52:39;;;;;;;18.48;16.67;;;;;;;10.61;100.00;100659.23;1789738;80;21130;-86
2021/04/15 15:59:33;;;;;;;;;;;;;;;10.49;100.00;100660.13;1793018;80;21230;-85
2021/04/15 16:02:38;;;;;;;16.67;13.60;;;;;;;10.43;100.00;100656.67;1790285;78;20278;-86
2021/04/15 16:05:42;;;;;;;15.30;13.25;;;;;;;10.41;100.00;100660.22;1777552;80;21109;-86
2021/04/15 16:08:22;;;;;;;14.28;12.65;;;;;;;10.43;100.00;100658.80;1772576;78;21182;-86
2021/04/15 16:11:36;;;;;;;16.00;11.40;;;;;;;10.44;100.00;100664.84;1775607;80;21149;-87
2021/04/15 16:14:11;;;;;;;16.87;10.82;;;;;;;10.44;100.00;100657.04;1772241;80;21364;-87
2021/04/15 16:16:41;;;;;;;20.15;9.78;;;;;;;10.47;100.00;100660.25;1752584;78;21152;-85